Terminal Aerodrome Forecast
Issued by NWS Springfield, MO

Current Version | Previous Version | Text Only | Print | Product List | Glossary On
Versions: 1 2 3 4 5 6 7 8 9 10 11 12 13 14
000
FTUS43 KSGF 051700
TAFSGF
TAF
KSGF 051721Z 0518/0618 18013G20KT P6SM SCT040 BKN250
     FM051900 16012KT P6SM VCTS BKN040CB
     FM060100 15013KT P6SM BKN100
     FM061200 17015KT P6SM OVC070 PROB30 0612/0618 3SM TSRA
      OVC030CB=

USA.gov is the U.S. government's official web portal to all federal, state and local government web resources and services.